sensor_id;sensor_type;location;lat;lon;timestamp;P1;durP1;ratioP1;P2;durP2;ratioP2
41201;SDS011;26936;50.524;8.684;2023-07-20T00:02:12;5.50;;;2.85;;
41201;SDS011;26936;50.524;8.684;2023-07-20T00:04:37;3.95;;;2.67;;
41201;SDS011;26936;50.524;8.684;2023-07-20T00:07:03;6.53;;;3.25;;
41201;SDS011;26936;50.524;8.684;2023-07-20T00:09:28;6.03;;;2.70;;
41201;SDS011;26936;50.524;8.684;2023-07-20T00:11:54;4.20;;;2.30;;
41201;SDS011;26936;50.524;8.684;2023-07-20T00:14:19;6.32;;;2.85;;
41201;SDS011;26936;50.524;8.684;2023-07-20T00:16:45;9.98;;;2.70;;
41201;SDS011;26936;50.524;8.684;2023-07-20T00:19:12;7.15;;;2.78;;
41201;SDS011;26936;50.524;8.684;2023-07-20T00:21:37;7.30;;;2.47;;
41201;SDS011;26936;50.524;8.684;2023-07-20T00:24:05;6.38;;;2.58;;
41201;SDS011;26936;50.524;8.684;2023-07-20T00:26:31;4.10;;;2.50;;
41201;SDS011;26936;50.524;8.684;2023-07-20T00:28:56;6.60;;;2.95;;
41201;SDS011;26936;50.524;8.684;2023-07-20T00:31:21;8.52;;;2.75;;
41201;SDS011;26936;50.524;8.684;2023-07-20T00:33:47;5.53;;;2.65;;
41201;SDS011;26936;50.524;8.684;2023-07-20T00:36:12;5.40;;;2.90;;
41201;SDS011;26936;50.524;8.684;2023-07-20T00:38:37;6.95;;;2.58;;
41201;SDS011;26936;50.524;8.684;2023-07-20T00:41:03;7.47;;;2.75;;
41201;SDS011;26936;50.524;8.684;2023-07-20T00:43:28;5.53;;;2.90;;
41201;SDS011;26936;50.524;8.684;2023-07-20T00:45:53;5.53;;;2.60;;
41201;SDS011;26936;50.524;8.684;2023-07-20T00:48:19;8.90;;;3.35;;
41201;SDS011;26936;50.524;8.684;2023-07-20T00:50:45;7.75;;;3.00;;
41201;SDS011;26936;50.524;8.684;2023-07-20T00:53:11;6.18;;;2.63;;
41201;SDS011;26936;50.524;8.684;2023-07-20T00:55:36;5.63;;;2.97;;
41201;SDS011;26936;50.524;8.684;2023-07-20T00:58:02;6.07;;;2.63;;
41201;SDS011;26936;50.524;8.684;2023-07-20T01:00:28;5.78;;;2.60;;
41201;SDS011;26936;50.524;8.684;2023-07-20T01:02:53;7.35;;;2.75;;
41201;SDS011;26936;50.524;8.684;2023-07-20T01:05:18;8.32;;;3.20;;
41201;SDS011;26936;50.524;8.684;2023-07-20T01:12:49;10.45;;;3.05;;
41201;SDS011;26936;50.524;8.684;2023-07-20T01:15:17;8.40;;;2.50;;
41201;SDS011;26936;50.524;8.684;2023-07-20T01:17:42;8.63;;;3.05;;
41201;SDS011;26936;50.524;8.684;2023-07-20T01:20:09;7.03;;;2.75;;
41201;SDS011;26936;50.524;8.684;2023-07-20T01:31:24;5.03;;;2.70;;
41201;SDS011;26936;50.524;8.684;2023-07-20T01:33:53;10.07;;;2.53;;
41201;SDS011;26936;50.524;8.684;2023-07-20T01:36:21;4.55;;;2.50;;
41201;SDS011;26936;50.524;8.684;2023-07-20T01:38:48;6.40;;;2.67;;
41201;SDS011;26936;50.524;8.684;2023-07-20T01:41:14;9.70;;;3.20;;
41201;SDS011;26936;50.524;8.684;2023-07-20T01:43:40;5.82;;;3.00;;
41201;SDS011;26936;50.524;8.684;2023-07-20T01:46:05;7.18;;;3.08;;
41201;SDS011;26936;50.524;8.684;2023-07-20T01:48:31;3.67;;;2.35;;
41201;SDS011;26936;50.524;8.684;2023-07-20T01:50:56;5.18;;;2.75;;
41201;SDS011;26936;50.524;8.684;2023-07-20T01:53:22;7.80;;;3.20;;
41201;SDS011;26936;50.524;8.684;2023-07-20T01:55:47;4.68;;;2.85;;
41201;SDS011;26936;50.524;8.684;2023-07-20T01:58:13;9.18;;;3.47;;
41201;SDS011;26936;50.524;8.684;2023-07-20T02:00:38;6.38;;;2.60;;
41201;SDS011;26936;50.524;8.684;2023-07-20T02:03:04;9.82;;;3.42;;
41201;SDS011;26936;50.524;8.684;2023-07-20T02:05:29;10.18;;;3.53;;
41201;SDS011;26936;50.524;8.684;2023-07-20T02:07:55;5.43;;;3.03;;
41201;SDS011;26936;50.524;8.684;2023-07-20T02:10:20;6.57;;;3.33;;
41201;SDS011;26936;50.524;8.684;2023-07-20T02:12:46;7.65;;;2.95;;
41201;SDS011;26936;50.524;8.684;2023-07-20T02:15:12;7.32;;;3.20;;
41201;SDS011;26936;50.524;8.684;2023-07-20T02:17:38;5.13;;;2.80;;
41201;SDS011;26936;50.524;8.684;2023-07-20T02:20:06;4.82;;;3.00;;
41201;SDS011;26936;50.524;8.684;2023-07-20T02:22:34;4.85;;;2.60;;
41201;SDS011;26936;50.524;8.684;2023-07-20T02:25:05;7.68;;;3.15;;
41201;SDS011;26936;50.524;8.684;2023-07-20T02:27:32;5.90;;;2.78;;
41201;SDS011;26936;50.524;8.684;2023-07-20T02:29:58;6.75;;;2.90;;
41201;SDS011;26936;50.524;8.684;2023-07-20T02:32:23;8.18;;;2.92;;
41201;SDS011;26936;50.524;8.684;2023-07-20T02:34:48;7.55;;;3.15;;
41201;SDS011;26936;50.524;8.684;2023-07-20T02:37:14;9.52;;;2.75;;
41201;SDS011;26936;50.524;8.684;2023-07-20T02:39:39;7.80;;;3.20;;
41201;SDS011;26936;50.524;8.684;2023-07-20T02:42:05;7.78;;;3.22;;
41201;SDS011;26936;50.524;8.684;2023-07-20T02:44:31;5.63;;;2.38;;
41201;SDS011;26936;50.524;8.684;2023-07-20T02:46:56;5.15;;;3.08;;
41201;SDS011;26936;50.524;8.684;2023-07-20T02:49:21;5.87;;;2.80;;
41201;SDS011;26936;50.524;8.684;2023-07-20T02:51:47;7.38;;;3.22;;
41201;SDS011;26936;50.524;8.684;2023-07-20T02:54:14;9.07;;;3.20;;
41201;SDS011;26936;50.524;8.684;2023-07-20T02:56:40;5.18;;;2.40;;
41201;SDS011;26936;50.524;8.684;2023-07-20T02:59:05;8.20;;;2.92;;
41201;SDS011;26936;50.524;8.684;2023-07-20T03:01:31;5.93;;;2.78;;
41201;SDS011;26936;50.524;8.684;2023-07-20T03:03:56;5.50;;;2.35;;
41201;SDS011;26936;50.524;8.684;2023-07-20T03:06:22;5.20;;;2.60;;
41201;SDS011;26936;50.524;8.684;2023-07-20T03:08:48;4.38;;;2.50;;
41201;SDS011;26936;50.524;8.684;2023-07-20T03:11:16;5.53;;;2.90;;
41201;SDS011;26936;50.524;8.684;2023-07-20T03:13:42;4.97;;;2.40;;
41201;SDS011;26936;50.524;8.684;2023-07-20T03:16:08;11.93;;;3.10;;
41201;SDS011;26936;50.524;8.684;2023-07-20T03:18:36;5.25;;;2.47;;
41201;SDS011;26936;50.524;8.684;2023-07-20T03:21:05;6.45;;;2.63;;
41201;SDS011;26936;50.524;8.684;2023-07-20T03:23:32;7.53;;;3.03;;
41201;SDS011;26936;50.524;8.684;2023-07-20T03:25:57;8.00;;;3.05;;
41201;SDS011;26936;50.524;8.684;2023-07-20T03:28:23;8.23;;;2.95;;
41201;SDS011;26936;50.524;8.684;2023-07-20T03:30:54;8.57;;;3.20;;
41201;SDS011;26936;50.524;8.684;2023-07-20T03:33:27;7.90;;;3.40;;
41201;SDS011;26936;50.524;8.684;2023-07-20T03:35:54;7.68;;;3.17;;
41201;SDS011;26936;50.524;8.684;2023-07-20T03:38:20;6.05;;;3.05;;
41201;SDS011;26936;50.524;8.684;2023-07-20T03:40:53;6.97;;;3.13;;
41201;SDS011;26936;50.524;8.684;2023-07-20T03:43:23;8.10;;;3.58;;
41201;SDS011;26936;50.524;8.684;2023-07-20T03:45:50;8.77;;;3.95;;
41201;SDS011;26936;50.524;8.684;2023-07-20T03:48:16;8.82;;;3.60;;
41201;SDS011;26936;50.524;8.684;2023-07-20T03:50:46;8.75;;;3.60;;
41201;SDS011;26936;50.524;8.684;2023-07-20T03:53:13;9.80;;;3.58;;
41201;SDS011;26936;50.524;8.684;2023-07-20T03:55:40;6.55;;;3.75;;
41201;SDS011;26936;50.524;8.684;2023-07-20T03:58:12;7.82;;;3.25;;
41201;SDS011;26936;50.524;8.684;2023-07-20T04:00:38;6.97;;;3.63;;
41201;SDS011;26936;50.524;8.684;2023-07-20T04:03:04;9.45;;;3.88;;
41201;SDS011;26936;50.524;8.684;2023-07-20T04:05:29;7.97;;;3.60;;
41201;SDS011;26936;50.524;8.684;2023-07-20T04:07:55;8.50;;;3.70;;
41201;SDS011;26936;50.524;8.684;2023-07-20T04:10:20;6.00;;;3.50;;
41201;SDS011;26936;50.524;8.684;2023-07-20T04:12:46;6.97;;;3.40;;
41201;SDS011;26936;50.524;8.684;2023-07-20T04:15:14;7.80;;;3.80;;
41201;SDS011;26936;50.524;8.684;2023-07-20T04:17:39;7.57;;;3.90;;
41201;SDS011;26936;50.524;8.684;2023-07-20T04:20:05;6.35;;;4.05;;
41201;SDS011;26936;50.524;8.684;2023-07-20T04:22:31;9.15;;;3.90;;
41201;SDS011;26936;50.524;8.684;2023-07-20T04:24:57;6.90;;;4.07;;
41201;SDS011;26936;50.524;8.684;2023-07-20T04:27:22;9.40;;;4.30;;
41201;SDS011;26936;50.524;8.684;2023-07-20T04:29:47;5.20;;;3.50;;
41201;SDS011;26936;50.524;8.684;2023-07-20T04:32:12;8.50;;;4.47;;
41201;SDS011;26936;50.524;8.684;2023-07-20T04:34:38;8.23;;;3.80;;
41201;SDS011;26936;50.524;8.684;2023-07-20T04:37:04;6.32;;;3.25;;
41201;SDS011;26936;50.524;8.684;2023-07-20T04:39:29;7.53;;;3.83;;
41201;SDS011;26936;50.524;8.684;2023-07-20T04:41:55;7.40;;;3.85;;
41201;SDS011;26936;50.524;8.684;2023-07-20T04:44:21;8.65;;;3.95;;
41201;SDS011;26936;50.524;8.684;2023-07-20T04:46:46;8.52;;;4.03;;
41201;SDS011;26936;50.524;8.684;2023-07-20T04:49:11;6.87;;;3.67;;
41201;SDS011;26936;50.524;8.684;2023-07-20T04:51:37;5.88;;;4.20;;
41201;SDS011;26936;50.524;8.684;2023-07-20T04:54:03;7.07;;;3.53;;
41201;SDS011;26936;50.524;8.684;2023-07-20T04:56:28;7.85;;;3.95;;
41201;SDS011;26936;50.524;8.684;2023-07-20T04:58:54;9.68;;;4.10;;
41201;SDS011;26936;50.524;8.684;2023-07-20T05:01:19;8.88;;;4.72;;
41201;SDS011;26936;50.524;8.684;2023-07-20T05:03:45;8.95;;;4.90;;
41201;SDS011;26936;50.524;8.684;2023-07-20T05:06:10;9.13;;;4.60;;
41201;SDS011;26936;50.524;8.684;2023-07-20T05:08:36;8.55;;;4.65;;
41201;SDS011;26936;50.524;8.684;2023-07-20T05:11:01;13.68;;;5.72;;
41201;SDS011;26936;50.524;8.684;2023-07-20T05:13:26;9.55;;;4.60;;
41201;SDS011;26936;50.524;8.684;2023-07-20T05:15:52;10.32;;;4.93;;
41201;SDS011;26936;50.524;8.684;2023-07-20T05:18:18;7.15;;;4.22;;
41201;SDS011;26936;50.524;8.684;2023-07-20T05:20:45;10.90;;;5.07;;
41201;SDS011;26936;50.524;8.684;2023-07-20T05:23:11;8.70;;;4.63;;
41201;SDS011;26936;50.524;8.684;2023-07-20T05:25:36;7.65;;;4.30;;
41201;SDS011;26936;50.524;8.684;2023-07-20T05:28:01;9.23;;;4.07;;
41201;SDS011;26936;50.524;8.684;2023-07-20T05:30:27;7.85;;;4.13;;
41201;SDS011;26936;50.524;8.684;2023-07-20T05:32:54;11.35;;;4.88;;
41201;SDS011;26936;50.524;8.684;2023-07-20T05:35:19;6.65;;;3.60;;
41201;SDS011;26936;50.524;8.684;2023-07-20T05:37:45;5.78;;;3.65;;
41201;SDS011;26936;50.524;8.684;2023-07-20T05:40:10;7.97;;;3.63;;
41201;SDS011;26936;50.524;8.684;2023-07-20T05:42:37;5.95;;;3.70;;
41201;SDS011;26936;50.524;8.684;2023-07-20T05:45:03;5.10;;;3.10;;
41201;SDS011;26936;50.524;8.684;2023-07-20T05:47:28;7.35;;;3.47;;
41201;SDS011;26936;50.524;8.684;2023-07-20T05:49:54;6.38;;;3.40;;
41201;SDS011;26936;50.524;8.684;2023-07-20T05:52:19;6.47;;;2.90;;
41201;SDS011;26936;50.524;8.684;2023-07-20T05:54:44;8.50;;;4.57;;
41201;SDS011;26936;50.524;8.684;2023-07-20T05:57:10;6.35;;;3.30;;
41201;SDS011;26936;50.524;8.684;2023-07-20T05:59:35;7.75;;;3.35;;
41201;SDS011;26936;50.524;8.684;2023-07-20T06:02:01;7.47;;;3.42;;
41201;SDS011;26936;50.524;8.684;2023-07-20T06:04:26;5.72;;;3.17;;
41201;SDS011;26936;50.524;8.684;2023-07-20T06:06:52;8.10;;;3.67;;
41201;SDS011;26936;50.524;8.684;2023-07-20T06:09:17;6.60;;;3.80;;
41201;SDS011;26936;50.524;8.684;2023-07-20T06:11:42;7.68;;;3.60;;
41201;SDS011;26936;50.524;8.684;2023-07-20T06:14:08;5.50;;;3.45;;
41201;SDS011;26936;50.524;8.684;2023-07-20T06:16:33;7.10;;;3.83;;
41201;SDS011;26936;50.524;8.684;2023-07-20T06:18:59;9.30;;;4.25;;
41201;SDS011;26936;50.524;8.684;2023-07-20T06:21:25;4.97;;;3.67;;
41201;SDS011;26936;50.524;8.684;2023-07-20T06:23:50;7.78;;;3.65;;
41201;SDS011;26936;50.524;8.684;2023-07-20T06:26:16;7.28;;;3.55;;
41201;SDS011;26936;50.524;8.684;2023-07-20T06:28:41;6.57;;;4.03;;
41201;SDS011;26936;50.524;8.684;2023-07-20T06:31:06;7.13;;;4.30;;
41201;SDS011;26936;50.524;8.684;2023-07-20T06:33:32;9.33;;;4.80;;
41201;SDS011;26936;50.524;8.684;2023-07-20T06:35:57;5.80;;;4.53;;
41201;SDS011;26936;50.524;8.684;2023-07-20T06:38:23;8.73;;;4.90;;
41201;SDS011;26936;50.524;8.684;2023-07-20T06:40:49;9.15;;;4.93;;
41201;SDS011;26936;50.524;8.684;2023-07-20T06:43:15;9.25;;;4.57;;
41201;SDS011;26936;50.524;8.684;2023-07-20T06:45:41;8.93;;;5.13;;
41201;SDS011;26936;50.524;8.684;2023-07-20T06:48:07;7.50;;;5.40;;
41201;SDS011;26936;50.524;8.684;2023-07-20T06:50:32;11.10;;;6.10;;
41201;SDS011;26936;50.524;8.684;2023-07-20T06:52:57;9.35;;;5.50;;
41201;SDS011;26936;50.524;8.684;2023-07-20T06:55:23;10.82;;;6.50;;
41201;SDS011;26936;50.524;8.684;2023-07-20T06:57:49;9.70;;;6.28;;
41201;SDS011;26936;50.524;8.684;2023-07-20T07:00:14;10.60;;;6.45;;
41201;SDS011;26936;50.524;8.684;2023-07-20T07:02:40;10.70;;;6.60;;
41201;SDS011;26936;50.524;8.684;2023-07-20T07:05:05;9.83;;;6.30;;
41201;SDS011;26936;50.524;8.684;2023-07-20T07:07:31;9.13;;;6.05;;
41201;SDS011;26936;50.524;8.684;2023-07-20T07:09:57;8.82;;;6.25;;
41201;SDS011;26936;50.524;8.684;2023-07-20T07:12:22;7.80;;;5.85;;
41201;SDS011;26936;50.524;8.684;2023-07-20T07:14:47;10.32;;;5.93;;
41201;SDS011;26936;50.524;8.684;2023-07-20T07:17:13;12.27;;;5.82;;
41201;SDS011;26936;50.524;8.684;2023-07-20T07:19:38;8.55;;;5.63;;
41201;SDS011;26936;50.524;8.684;2023-07-20T07:22:03;8.43;;;6.10;;
41201;SDS011;26936;50.524;8.684;2023-07-20T07:24:29;8.25;;;5.88;;
41201;SDS011;26936;50.524;8.684;2023-07-20T07:26:58;7.97;;;6.05;;
41201;SDS011;26936;50.524;8.684;2023-07-20T07:29:30;10.30;;;7.10;;
41201;SDS011;26936;50.524;8.684;2023-07-20T07:31:55;9.93;;;5.70;;
41201;SDS011;26936;50.524;8.684;2023-07-20T07:34:20;8.80;;;5.75;;
41201;SDS011;26936;50.524;8.684;2023-07-20T07:36:46;8.60;;;5.53;;
41201;SDS011;26936;50.524;8.684;2023-07-20T07:39:12;9.25;;;4.82;;
41201;SDS011;26936;50.524;8.684;2023-07-20T07:41:37;9.30;;;5.50;;
41201;SDS011;26936;50.524;8.684;2023-07-20T07:44:02;8.35;;;5.55;;
41201;SDS011;26936;50.524;8.684;2023-07-20T07:46:28;8.43;;;5.18;;
41201;SDS011;26936;50.524;8.684;2023-07-20T07:48:53;7.27;;;4.60;;
41201;SDS011;26936;50.524;8.684;2023-07-20T07:51:19;6.90;;;4.18;;
41201;SDS011;26936;50.524;8.684;2023-07-20T07:53:45;7.38;;;4.30;;
41201;SDS011;26936;50.524;8.684;2023-07-20T07:56:11;6.90;;;4.78;;
41201;SDS011;26936;50.524;8.684;2023-07-20T07:58:36;7.22;;;4.13;;
41201;SDS011;26936;50.524;8.684;2023-07-20T08:01:02;7.13;;;3.83;;
41201;SDS011;26936;50.524;8.684;2023-07-20T08:03:28;6.53;;;3.65;;
41201;SDS011;26936;50.524;8.684;2023-07-20T08:05:54;5.07;;;3.50;;
41201;SDS011;26936;50.524;8.684;2023-07-20T08:08:20;5.75;;;3.50;;
41201;SDS011;26936;50.524;8.684;2023-07-20T08:10:46;7.95;;;3.88;;
41201;SDS011;26936;50.524;8.684;2023-07-20T08:13:12;7.97;;;4.30;;
41201;SDS011;26936;50.524;8.684;2023-07-20T08:15:37;8.23;;;4.32;;
41201;SDS011;26936;50.524;8.684;2023-07-20T08:18:03;5.80;;;3.60;;
41201;SDS011;26936;50.524;8.684;2023-07-20T08:20:28;6.28;;;3.97;;
41201;SDS011;26936;50.524;8.684;2023-07-20T08:22:54;6.47;;;4.20;;
41201;SDS011;26936;50.524;8.684;2023-07-20T08:25:20;6.43;;;4.28;;
41201;SDS011;26936;50.524;8.684;2023-07-20T08:27:45;8.07;;;4.50;;
41201;SDS011;26936;50.524;8.684;2023-07-20T08:30:12;8.13;;;4.72;;
41201;SDS011;26936;50.524;8.684;2023-07-20T08:32:37;8.07;;;4.35;;
41201;SDS011;26936;50.524;8.684;2023-07-20T08:35:04;6.63;;;4.07;;
41201;SDS011;26936;50.524;8.684;2023-07-20T08:37:30;7.38;;;4.80;;
41201;SDS011;26936;50.524;8.684;2023-07-20T08:39:56;8.90;;;4.77;;
41201;SDS011;26936;50.524;8.684;2023-07-20T08:42:21;5.32;;;4.53;;
41201;SDS011;26936;50.524;8.684;2023-07-20T08:44:48;10.10;;;4.53;;
41201;SDS011;26936;50.524;8.684;2023-07-20T08:47:14;7.82;;;4.00;;
41201;SDS011;26936;50.524;8.684;2023-07-20T08:49:41;6.70;;;3.60;;
41201;SDS011;26936;50.524;8.684;2023-07-20T08:52:07;7.13;;;3.92;;
41201;SDS011;26936;50.524;8.684;2023-07-20T08:54:32;6.90;;;3.65;;
41201;SDS011;26936;50.524;8.684;2023-07-20T08:57:03;10.13;;;5.03;;
41201;SDS011;26936;50.524;8.684;2023-07-20T08:59:29;5.60;;;4.53;;
41201;SDS011;26936;50.524;8.684;2023-07-20T09:01:56;9.73;;;5.20;;
41201;SDS011;26936;50.524;8.684;2023-07-20T09:04:23;9.93;;;5.22;;
41201;SDS011;26936;50.524;8.684;2023-07-20T09:06:49;7.15;;;4.72;;
41201;SDS011;26936;50.524;8.684;2023-07-20T09:09:14;8.27;;;4.97;;
41201;SDS011;26936;50.524;8.684;2023-07-20T09:11:40;6.80;;;4.60;;
41201;SDS011;26936;50.524;8.684;2023-07-20T09:14:06;5.88;;;4.45;;
41201;SDS011;26936;50.524;8.684;2023-07-20T09:16:46;8.55;;;4.93;;
41201;SDS011;26936;50.524;8.684;2023-07-20T09:19:16;9.68;;;4.93;;
41201;SDS011;26936;50.524;8.684;2023-07-20T09:21:44;8.35;;;4.93;;
41201;SDS011;26936;50.524;8.684;2023-07-20T09:24:10;7.60;;;4.45;;
41201;SDS011;26936;50.524;8.684;2023-07-20T09:26:40;7.25;;;4.63;;
41201;SDS011;26936;50.524;8.684;2023-07-20T09:29:07;7.10;;;3.78;;
41201;SDS011;26936;50.524;8.684;2023-07-20T09:31:34;5.78;;;3.90;;
41201;SDS011;26936;50.524;8.684;2023-07-20T09:33:59;9.82;;;4.90;;
41201;SDS011;26936;50.524;8.684;2023-07-20T09:36:26;9.37;;;4.03;;
41201;SDS011;26936;50.524;8.684;2023-07-20T09:38:52;6.25;;;3.78;;
41201;SDS011;26936;50.524;8.684;2023-07-20T09:41:17;7.25;;;3.95;;
41201;SDS011;26936;50.524;8.684;2023-07-20T09:43:43;6.00;;;3.55;;
41201;SDS011;26936;50.524;8.684;2023-07-20T09:46:10;7.20;;;3.85;;
41201;SDS011;26936;50.524;8.684;2023-07-20T09:48:36;5.90;;;3.30;;
41201;SDS011;26936;50.524;8.684;2023-07-20T09:51:01;6.07;;;3.53;;
41201;SDS011;26936;50.524;8.684;2023-07-20T09:53:26;9.90;;;3.72;;
41201;SDS011;26936;50.524;8.684;2023-07-20T09:55:53;5.70;;;2.83;;
41201;SDS011;26936;50.524;8.684;2023-07-20T09:58:19;6.70;;;3.00;;
41201;SDS011;26936;50.524;8.684;2023-07-20T10:00:45;4.65;;;2.30;;
41201;SDS011;26936;50.524;8.684;2023-07-20T10:03:19;3.45;;;2.40;;
41201;SDS011;26936;50.524;8.684;2023-07-20T10:05:52;4.63;;;2.70;;
41201;SDS011;26936;50.524;8.684;2023-07-20T10:08:25;4.22;;;2.63;;
41201;SDS011;26936;50.524;8.684;2023-07-20T10:10:51;3.72;;;2.60;;
41201;SDS011;26936;50.524;8.684;2023-07-20T10:13:17;6.35;;;2.80;;
41201;SDS011;26936;50.524;8.684;2023-07-20T10:15:47;3.63;;;2.78;;
41201;SDS011;26936;50.524;8.684;2023-07-20T10:21:24;4.22;;;2.60;;
41201;SDS011;26936;50.524;8.684;2023-07-20T10:23:50;5.03;;;3.13;;
41201;SDS011;26936;50.524;8.684;2023-07-20T10:26:16;3.78;;;2.60;;
41201;SDS011;26936;50.524;8.684;2023-07-20T10:28:41;3.90;;;2.50;;
41201;SDS011;26936;50.524;8.684;2023-07-20T10:31:07;4.38;;;2.70;;
41201;SDS011;26936;50.524;8.684;2023-07-20T10:33:36;4.50;;;2.63;;
41201;SDS011;26936;50.524;8.684;2023-07-20T10:36:03;4.30;;;2.35;;
41201;SDS011;26936;50.524;8.684;2023-07-20T10:41:19;3.42;;;2.28;;
41201;SDS011;26936;50.524;8.684;2023-07-20T10:43:58;6.65;;;2.80;;
41201;SDS011;26936;50.524;8.684;2023-07-20T10:46:34;2.55;;;1.98;;
41201;SDS011;26936;50.524;8.684;2023-07-20T10:49:03;2.97;;;2.30;;
41201;SDS011;26936;50.524;8.684;2023-07-20T10:51:30;4.53;;;2.35;;
41201;SDS011;26936;50.524;8.684;2023-07-20T10:54:03;3.95;;;2.25;;
41201;SDS011;26936;50.524;8.684;2023-07-20T10:56:28;4.50;;;2.30;;
41201;SDS011;26936;50.524;8.684;2023-07-20T10:59:00;4.68;;;2.67;;
41201;SDS011;26936;50.524;8.684;2023-07-20T11:01:30;4.20;;;2.33;;
41201;SDS011;26936;50.524;8.684;2023-07-20T11:03:59;2.70;;;2.30;;
41201;SDS011;26936;50.524;8.684;2023-07-20T11:13:58;3.95;;;2.28;;
41201;SDS011;26936;50.524;8.684;2023-07-20T11:19:05;5.20;;;2.35;;
41201;SDS011;26936;50.524;8.684;2023-07-20T11:21:35;4.15;;;2.53;;
41201;SDS011;26936;50.524;8.684;2023-07-20T11:24:03;4.18;;;2.30;;
41201;SDS011;26936;50.524;8.684;2023-07-20T11:26:45;5.68;;;2.47;;
41201;SDS011;26936;50.524;8.684;2023-07-20T11:29:12;5.22;;;2.47;;
41201;SDS011;26936;50.524;8.684;2023-07-20T11:31:39;4.18;;;2.30;;
41201;SDS011;26936;50.524;8.684;2023-07-20T11:34:07;5.32;;;2.53;;
41201;SDS011;26936;50.524;8.684;2023-07-20T11:36:35;3.55;;;2.33;;
41201;SDS011;26936;50.524;8.684;2023-07-20T11:39:00;2.92;;;2.22;;
41201;SDS011;26936;50.524;8.684;2023-07-20T11:41:26;3.35;;;1.50;;
41201;SDS011;26936;50.524;8.684;2023-07-20T11:43:52;2.67;;;1.95;;
41201;SDS011;26936;50.524;8.684;2023-07-20T11:46:18;5.65;;;2.45;;
41201;SDS011;26936;50.524;8.684;2023-07-20T11:48:43;2.72;;;2.13;;
41201;SDS011;26936;50.524;8.684;2023-07-20T11:51:16;3.90;;;2.00;;
41201;SDS011;26936;50.524;8.684;2023-07-20T11:56:08;2.40;;;2.00;;
41201;SDS011;26936;50.524;8.684;2023-07-20T11:58:33;3.08;;;2.10;;
41201;SDS011;26936;50.524;8.684;2023-07-20T12:00:58;3.17;;;2.58;;
41201;SDS011;26936;50.524;8.684;2023-07-20T12:03:24;2.50;;;1.90;;
41201;SDS011;26936;50.524;8.684;2023-07-20T12:05:49;3.90;;;2.10;;
41201;SDS011;26936;50.524;8.684;2023-07-20T12:08:15;2.63;;;2.10;;
41201;SDS011;26936;50.524;8.684;2023-07-20T12:10:41;3.35;;;2.20;;
41201;SDS011;26936;50.524;8.684;2023-07-20T12:13:09;3.03;;;2.05;;
41201;SDS011;26936;50.524;8.684;2023-07-20T12:15:38;3.03;;;2.05;;
41201;SDS011;26936;50.524;8.684;2023-07-20T12:18:04;2.63;;;2.10;;
41201;SDS011;26936;50.524;8.684;2023-07-20T12:20:34;3.10;;;2.10;;
41201;SDS011;26936;50.524;8.684;2023-07-20T12:23:11;5.05;;;2.20;;
41201;SDS011;26936;50.524;8.684;2023-07-20T12:25:38;3.22;;;2.00;;
41201;SDS011;26936;50.524;8.684;2023-07-20T12:28:09;4.25;;;1.90;;
41201;SDS011;26936;50.524;8.684;2023-07-20T12:30:36;4.43;;;1.90;;
41201;SDS011;26936;50.524;8.684;2023-07-20T12:33:02;2.85;;;2.13;;
41201;SDS011;26936;50.524;8.684;2023-07-20T12:35:28;3.30;;;2.10;;
41201;SDS011;26936;50.524;8.684;2023-07-20T12:37:54;4.30;;;1.88;;
41201;SDS011;26936;50.524;8.684;2023-07-20T12:40:20;3.67;;;2.03;;
41201;SDS011;26936;50.524;8.684;2023-07-20T12:42:46;2.97;;;2.08;;
41201;SDS011;26936;50.524;8.684;2023-07-20T12:45:11;2.83;;;2.00;;
41201;SDS011;26936;50.524;8.684;2023-07-20T12:47:36;3.38;;;2.00;;
41201;SDS011;26936;50.524;8.684;2023-07-20T12:50:02;2.25;;;1.80;;
41201;SDS011;26936;50.524;8.684;2023-07-20T12:52:31;4.93;;;2.13;;
41201;SDS011;26936;50.524;8.684;2023-07-20T12:54:56;2.90;;;2.20;;
41201;SDS011;26936;50.524;8.684;2023-07-20T12:57:22;2.95;;;1.92;;
41201;SDS011;26936;50.524;8.684;2023-07-20T12:59:47;3.08;;;1.67;;
41201;SDS011;26936;50.524;8.684;2023-07-20T13:02:13;3.97;;;1.88;;
41201;SDS011;26936;50.524;8.684;2023-07-20T13:04:38;5.07;;;2.10;;
41201;SDS011;26936;50.524;8.684;2023-07-20T13:07:03;3.55;;;1.80;;
41201;SDS011;26936;50.524;8.684;2023-07-20T13:09:29;3.15;;;1.80;;
41201;SDS011;26936;50.524;8.684;2023-07-20T13:11:54;2.63;;;2.08;;
41201;SDS011;26936;50.524;8.684;2023-07-20T13:14:19;2.35;;;1.80;;
41201;SDS011;26936;50.524;8.684;2023-07-20T13:16:45;2.33;;;1.80;;
41201;SDS011;26936;50.524;8.684;2023-07-20T13:19:10;3.37;;;2.37;;
41201;SDS011;26936;50.524;8.684;2023-07-20T13:21:35;2.53;;;1.73;;
41201;SDS011;26936;50.524;8.684;2023-07-20T13:24:00;3.95;;;1.58;;
41201;SDS011;26936;50.524;8.684;2023-07-20T13:26:26;3.10;;;1.80;;
41201;SDS011;26936;50.524;8.684;2023-07-20T13:28:52;3.75;;;1.60;;
41201;SDS011;26936;50.524;8.684;2023-07-20T13:31:17;3.03;;;2.10;;
41201;SDS011;26936;50.524;8.684;2023-07-20T13:33:42;2.57;;;2.07;;
41201;SDS011;26936;50.524;8.684;2023-07-20T13:36:08;4.63;;;2.27;;
41201;SDS011;26936;50.524;8.684;2023-07-20T13:38:33;4.47;;;1.90;;
41201;SDS011;26936;50.524;8.684;2023-07-20T13:40:58;3.83;;;1.97;;
41201;SDS011;26936;50.524;8.684;2023-07-20T13:43:23;6.07;;;1.97;;
41201;SDS011;26936;50.524;8.684;2023-07-20T13:45:50;2.50;;;2.05;;
41201;SDS011;26936;50.524;8.684;2023-07-20T13:48:15;5.25;;;2.38;;
41201;SDS011;26936;50.524;8.684;2023-07-20T13:50:40;4.15;;;2.22;;
41201;SDS011;26936;50.524;8.684;2023-07-20T13:53:06;3.20;;;1.93;;
41201;SDS011;26936;50.524;8.684;2023-07-20T13:55:31;3.00;;;2.08;;
41201;SDS011;26936;50.524;8.684;2023-07-20T13:57:58;8.10;;;2.22;;
41201;SDS011;26936;50.524;8.684;2023-07-20T14:00:24;6.82;;;2.30;;
41201;SDS011;26936;50.524;8.684;2023-07-20T14:02:51;5.63;;;2.20;;
41201;SDS011;26936;50.524;8.684;2023-07-20T14:05:18;5.35;;;2.30;;
41201;SDS011;26936;50.524;8.684;2023-07-20T14:07:44;6.22;;;2.67;;
41201;SDS011;26936;50.524;8.684;2023-07-20T14:10:09;4.40;;;2.03;;
41201;SDS011;26936;50.524;8.684;2023-07-20T14:12:35;3.78;;;2.17;;
41201;SDS011;26936;50.524;8.684;2023-07-20T14:15:00;4.18;;;2.13;;
41201;SDS011;26936;50.524;8.684;2023-07-20T14:17:25;3.10;;;1.90;;
41201;SDS011;26936;50.524;8.684;2023-07-20T14:19:51;5.97;;;2.00;;
41201;SDS011;26936;50.524;8.684;2023-07-20T14:22:18;3.70;;;2.10;;
41201;SDS011;26936;50.524;8.684;2023-07-20T14:24:43;4.75;;;1.90;;
41201;SDS011;26936;50.524;8.684;2023-07-20T14:27:09;3.07;;;1.80;;
41201;SDS011;26936;50.524;8.684;2023-07-20T14:29:34;6.00;;;2.50;;
41201;SDS011;26936;50.524;8.684;2023-07-20T14:32:01;3.85;;;2.00;;
41201;SDS011;26936;50.524;8.684;2023-07-20T14:34:26;5.10;;;2.20;;
41201;SDS011;26936;50.524;8.684;2023-07-20T14:36:52;3.80;;;2.05;;
41201;SDS011;26936;50.524;8.684;2023-07-20T14:39:18;4.38;;;2.00;;
41201;SDS011;26936;50.524;8.684;2023-07-20T14:41:44;4.18;;;2.03;;
41201;SDS011;26936;50.524;8.684;2023-07-20T14:44:10;4.50;;;2.15;;
41201;SDS011;26936;50.524;8.684;2023-07-20T14:46:35;3.00;;;2.15;;
41201;SDS011;26936;50.524;8.684;2023-07-20T14:49:00;3.83;;;2.22;;
41201;SDS011;26936;50.524;8.684;2023-07-20T14:51:27;4.00;;;1.83;;
41201;SDS011;26936;50.524;8.684;2023-07-20T14:53:58;4.72;;;2.00;;
41201;SDS011;26936;50.524;8.684;2023-07-20T14:56:23;5.00;;;2.45;;
41201;SDS011;26936;50.524;8.684;2023-07-20T14:58:48;3.28;;;2.28;;
41201;SDS011;26936;50.524;8.684;2023-07-20T15:01:14;3.40;;;1.70;;
41201;SDS011;26936;50.524;8.684;2023-07-20T15:03:39;3.63;;;2.00;;
41201;SDS011;26936;50.524;8.684;2023-07-20T15:06:04;4.07;;;2.05;;
41201;SDS011;26936;50.524;8.684;2023-07-20T15:08:36;3.42;;;2.20;;
41201;SDS011;26936;50.524;8.684;2023-07-20T15:11:01;3.55;;;2.08;;
41201;SDS011;26936;50.524;8.684;2023-07-20T15:13:27;2.90;;;1.90;;
41201;SDS011;26936;50.524;8.684;2023-07-20T15:15:52;3.80;;;2.10;;